Aurora, CO (80016)

2:30 AM MDT on September 16, 2014 (GMT -0600)
Greenfield | Change Station
CLOSE
Current Station
Personal Weather Station
Location: Centennial, CO
Elevation: 5810 ft
Nearby Weather Stations

Elev 5810 ft 39.60 °N, 104.75 °W | Updated 8 seconds ago

Clear
Clear
56.3 °F
Feels Like 56.3 °F
N
2.5
Wind Variable Wind from SE
Gusts 6.5 mph

Today
High -- | Low -- °F
--% Chance of Precip.
Yesterday
High -- | Low -- °F
Precip. -- in
6:41 AM 7:05 PM
Waning Gibbous, 47% visible
Pressure 30.10 in
Visibility 10.0 miles
Clouds Clear
Dew Point 48 °F
Humidity 73%
Rainfall 0.00 in
Snow Depth Not available.
UV 0 out of 12
Pollen 7.00 out of 12
Ozone Good
PM2.5 Good
Flu Activity Not available.
METAR KAPA 160753Z 17010KT 10SM CLR 13/09 A3024 RMK AO2 SLP191 T01280089

More Conditions Fewer Conditions

Pressure 30.10 in
Visibility 10.0 miles
Clouds Clear
Dew Point 48 °F
Humidity 73%
Rainfall 0.00 in
Snow Depth Not available.
UV 0 out of 12
Pollen 7.00 out of 12
Ozone Good
PM2.5 Good
Flu Activity Not available.
METAR KAPA 160753Z 17010KT 10SM CLR 13/09 A3024 RMK AO2 SLP191 T01280089

More Conditions Fewer Conditions

10-Day Weather Forecast

Almanac

Astronomy

Sep. 16, 2014 Rise Set
Actual Time 6:41 AM MDT 7:05 PM MDT
Civil Twilight 6:14 AM MDT 7:32 PM MDT
Nautical Twilight 5:42 AM MDT 8:04 PM MDT
Astronomical Twilight 5:09 AM MDT 8:36 PM MDT
Moon No Moon Rise 2:30 PM MDT
Length of Visible Light 13h 18m
Length of Day
12h 24m
Tomorrow will be 2m 34s shorter.
Waning Gibbous, 47% of the Moon is Illuminated
Today
Waning Gibbous
Sep 24
New
Oct 1
First Quarter
Oct 8
Full
Oct 15
Last Quarter

Today's Extremes

State Highs State Lows

Community

WunderPhotos

Upload Photos

1,753,712 photos uploaded!

Nearby

Air Quality

  Air Quality AQ Index Pollutant
Yesterday Good
OZONE
Yesterday Good
PM10
Current Good
PM2.5
Current Good
OZONE
Tuesday Moderate
OZONE
Tuesday Good
PM2.5

Snow Depth

Station Depth Elevation
Idarado 8 in 9800 ft
Willow Creek Pass 1 in 9540 ft
Echo Lake 0 in 10600 ft
Scotch Creek 0 in 9100 ft
Crosho 0 in 9100 ft

Earthquake Activity

City Distance Mag. Time & Date
No recent earthquake activity has been reported nearby.
Minimum magnitude displayed is 2.5.

Coastal Water Temperatures

Place Temperature
No Stations Reporting

Nearby Weather Stations